createdAt,value
2023-09-22T00:16:20.690Z,13.25
2023-09-22T00:18:47.696Z,11.25
2023-09-22T00:21:15.366Z,10.53
2023-09-22T00:23:42.243Z,11.35
2023-09-22T00:26:08.996Z,10.88
2023-09-22T00:28:36.172Z,11.52
2023-09-22T00:46:01.652Z,10.88
2023-09-22T00:48:35.267Z,7.87
2023-09-22T00:51:03.439Z,9.52
2023-09-22T00:53:34.664Z,9.90
2023-09-22T00:56:03.879Z,9.48
2023-09-22T00:58:30.787Z,9.63
2023-09-22T01:16:20.406Z,7.13
2023-09-22T01:18:47.550Z,9.18
2023-09-22T01:21:14.302Z,8.18
2023-09-22T01:23:42.508Z,9.65
2023-09-22T01:26:10.524Z,10.13
2023-09-22T01:28:37.930Z,10.40
2023-09-22T01:46:19.146Z,11.00
2023-09-22T01:48:46.459Z,9.20
2023-09-22T01:51:13.306Z,7.68
2023-09-22T01:53:40.384Z,7.88
2023-09-22T01:56:08.135Z,9.30
2023-09-22T01:58:35.110Z,8.70
2023-09-22T02:16:14.966Z,6.20
2023-09-22T02:18:44.803Z,7.15
2023-09-22T02:21:12.423Z,6.38
2023-09-22T02:23:39.619Z,6.57
2023-09-22T02:26:10.158Z,6.90
2023-09-22T02:28:36.868Z,6.28
2023-09-22T02:46:12.319Z,6.55
2023-09-22T02:48:39.296Z,4.78
2023-09-22T02:51:09.762Z,5.27
2023-09-22T02:53:36.441Z,5.05
2023-09-22T02:56:06.660Z,4.68
2023-09-22T02:58:33.907Z,4.53
2023-09-22T03:16:14.814Z,3.28
2023-09-22T03:18:42.853Z,3.73
2023-09-22T03:21:10.820Z,7.57
2023-09-22T03:23:37.523Z,3.35
2023-09-22T03:26:05.271Z,3.50
2023-09-22T03:28:32.124Z,5.22
2023-09-22T03:46:14.116Z,4.03
2023-09-22T03:48:45.639Z,4.88
2023-09-22T03:51:12.443Z,2.58
2023-09-22T03:53:39.447Z,2.58
2023-09-22T03:56:08.335Z,4.18
2023-09-22T03:58:34.973Z,4.00
2023-09-22T04:15:59.796Z,2.72
2023-09-22T04:18:31.592Z,3.80
2023-09-22T04:20:59.426Z,4.70
2023-09-22T04:23:26.410Z,3.95
2023-09-22T04:25:56.081Z,4.20
2023-09-22T04:28:24.532Z,3.53
2023-09-22T04:46:03.561Z,4.18
2023-09-22T04:48:30.444Z,4.97
2023-09-22T04:50:57.198Z,5.13
2023-09-22T04:53:25.533Z,4.27
2023-09-22T04:56:05.659Z,3.63
2023-09-22T04:58:32.359Z,4.03
2023-09-22T05:01:02.645Z,4.03
2023-09-22T05:03:30.376Z,4.28
2023-09-22T05:06:08.177Z,4.07
2023-09-22T05:08:35.002Z,3.95
2023-09-22T05:11:08.800Z,5.13
2023-09-22T05:13:37.234Z,3.78
2023-09-22T05:16:11.683Z,2.50
2023-09-22T05:18:38.751Z,3.47
2023-09-22T05:21:05.999Z,4.85
2023-09-22T05:23:33.539Z,3.05
2023-09-22T05:26:01.242Z,3.92
2023-09-22T05:28:28.414Z,3.58
2023-09-22T05:30:55.292Z,3.00
2023-09-22T05:33:22.422Z,3.60
2023-09-22T05:35:49.230Z,3.58
2023-09-22T05:38:16.023Z,4.63
2023-09-22T05:40:42.800Z,4.15
2023-09-22T05:43:12.043Z,5.80
2023-09-22T05:45:38.736Z,2.63
2023-09-22T05:48:06.195Z,9.90
2023-09-22T05:50:32.865Z,7.57
2023-09-22T05:52:59.586Z,10.57
2023-09-22T05:55:29.038Z,12.73
2023-09-22T05:57:55.967Z,12.27
2023-09-22T06:00:27.439Z,9.25
2023-09-22T06:02:55.610Z,12.93
2023-09-22T06:05:23.789Z,3.92
2023-09-22T06:07:51.646Z,7.57
2023-09-22T06:10:18.536Z,3.55
2023-09-22T06:12:46.200Z,4.93
2023-09-22T06:15:17.645Z,4.97
2023-09-22T06:17:47.049Z,3.45
2023-09-22T06:20:17.397Z,3.23
2023-09-22T06:22:46.245Z,3.38
2023-09-22T06:25:15.039Z,3.90
2023-09-22T06:27:43.134Z,4.10
2023-09-22T06:30:12.961Z,3.30
2023-09-22T06:32:44.290Z,5.67
2023-09-22T06:35:12.079Z,3.85
2023-09-22T06:37:40.506Z,3.65
2023-09-22T06:40:12.877Z,2.47
2023-09-22T06:42:43.831Z,4.35
2023-09-22T06:45:11.342Z,3.93
2023-09-22T06:47:45.069Z,3.25
2023-09-22T06:50:12.873Z,2.55
2023-09-22T06:52:41.754Z,2.50
2023-09-22T06:55:12.421Z,4.20
2023-09-22T06:57:41.818Z,4.27
2023-09-22T07:00:17.084Z,2.90
2023-09-22T07:02:48.441Z,3.60
2023-09-22T07:05:16.408Z,4.28
2023-09-22T07:07:43.297Z,4.00
2023-09-22T07:10:14.743Z,2.53
2023-09-22T07:12:43.119Z,2.25
2023-09-22T07:15:13.893Z,4.32
2023-09-22T07:17:44.267Z,3.50
2023-09-22T07:20:15.162Z,2.15
2023-09-22T07:22:46.517Z,3.83
2023-09-22T07:25:14.941Z,3.53
2023-09-22T07:27:45.282Z,3.08
2023-09-22T07:30:12.231Z,2.97
2023-09-22T07:32:42.448Z,3.67
2023-09-22T07:35:09.946Z,3.50
2023-09-22T07:37:37.002Z,2.28
2023-09-22T07:40:10.131Z,2.95
2023-09-22T07:42:39.732Z,3.10
2023-09-22T07:45:07.752Z,2.90
2023-09-22T07:47:35.535Z,4.10
2023-09-22T07:50:02.462Z,3.80
2023-09-22T07:52:30.109Z,3.40
2023-09-22T07:54:57.685Z,3.50
2023-09-22T07:57:24.642Z,4.38
2023-09-22T07:59:52.049Z,7.23
2023-09-22T08:02:19.105Z,4.47
2023-09-22T08:04:46.064Z,4.03
2023-09-22T08:07:15.019Z,4.15
2023-09-22T08:09:41.771Z,3.42
2023-09-22T08:12:09.577Z,3.40
2023-09-22T08:14:54.595Z,2.35
2023-09-22T08:17:23.391Z,2.42
2023-09-22T08:19:51.304Z,2.47
2023-09-22T08:22:18.218Z,8.18
2023-09-22T08:24:45.222Z,3.87
2023-09-22T08:27:11.976Z,3.00
2023-09-22T08:29:38.906Z,2.35
2023-09-22T08:32:08.504Z,4.60
2023-09-22T08:34:39.501Z,5.22
2023-09-22T08:37:06.530Z,5.13
2023-09-22T08:39:33.867Z,2.33
2023-09-22T08:42:00.865Z,5.32
2023-09-22T08:44:28.522Z,4.63
2023-09-22T08:46:55.421Z,4.80
2023-09-22T08:49:22.580Z,4.67
2023-09-22T08:51:52.823Z,3.22
2023-09-22T08:54:19.501Z,3.55
2023-09-22T08:56:46.170Z,5.03
2023-09-22T08:59:13.505Z,3.50
2023-09-22T09:01:40.760Z,3.87
2023-09-22T09:04:41.506Z,4.30
2023-09-22T09:07:08.926Z,4.95
2023-09-22T09:09:46.740Z,4.85
2023-09-22T09:12:14.316Z,6.00
2023-09-22T09:14:43.731Z,6.43
2023-09-22T09:17:22.301Z,4.85
2023-09-22T09:20:02.769Z,5.18
2023-09-22T09:22:33.978Z,4.30
2023-09-22T09:25:01.408Z,4.05
2023-09-22T09:27:28.213Z,3.03
2023-09-22T09:29:54.912Z,3.97
2023-09-22T09:32:31.033Z,4.10
2023-09-22T09:34:58.021Z,3.78
2023-09-22T09:37:24.982Z,4.72
2023-09-22T09:39:58.882Z,3.57
2023-09-22T09:42:27.601Z,2.85
2023-09-22T09:44:58.037Z,2.83
2023-09-22T09:47:34.008Z,2.20
2023-09-22T09:50:00.987Z,1.90
2023-09-22T09:52:44.133Z,3.40
2023-09-22T09:55:16.296Z,3.40
2023-09-22T09:57:48.425Z,2.47
2023-09-22T10:00:21.860Z,2.80
2023-09-22T10:02:50.689Z,2.75
2023-09-22T10:05:21.767Z,3.87
2023-09-22T10:07:57.639Z,3.83
2023-09-22T10:10:25.006Z,5.53
2023-09-22T10:12:51.974Z,3.22
2023-09-22T10:15:58.792Z,3.88
2023-09-22T10:19:01.726Z,7.07
2023-09-22T10:21:47.071Z,7.80
2023-09-22T10:24:25.488Z,4.05
2023-09-22T10:26:59.026Z,3.50
2023-09-22T10:29:44.124Z,2.70
2023-09-22T10:32:16.856Z,3.10
2023-09-22T10:35:12.197Z,2.88
2023-09-22T10:37:58.637Z,4.15
2023-09-22T10:40:26.377Z,2.88
2023-09-22T10:42:53.184Z,2.15
2023-09-22T10:45:22.884Z,2.90
2023-09-22T10:47:52.617Z,5.10
2023-09-22T10:50:31.585Z,4.78
2023-09-22T10:53:06.434Z,3.50
2023-09-22T10:55:38.377Z,4.85
2023-09-22T10:58:10.918Z,3.40
2023-09-22T11:00:47.206Z,3.35
2023-09-22T11:03:16.004Z,3.03
2023-09-22T11:05:44.450Z,2.78
2023-09-22T11:08:20.734Z,3.63
2023-09-22T11:10:57.287Z,3.93
2023-09-22T11:13:24.682Z,4.18
2023-09-22T11:15:59.423Z,5.25
2023-09-22T11:18:34.416Z,4.25
2023-09-22T11:21:14.743Z,5.63
2023-09-22T11:23:42.525Z,3.20
2023-09-22T11:26:12.166Z,4.60
2023-09-22T11:28:44.578Z,3.83
2023-09-22T11:31:18.427Z,3.00
2023-09-22T11:33:47.152Z,4.25
2023-09-22T11:36:14.384Z,4.80
2023-09-22T11:38:41.778Z,4.88
2023-09-22T11:41:17.604Z,6.30
2023-09-22T11:43:44.796Z,3.38
2023-09-22T11:46:12.995Z,4.20
2023-09-22T11:48:58.849Z,3.57
2023-09-22T11:51:53.101Z,3.97
2023-09-22T11:54:21.476Z,4.90
2023-09-22T11:56:49.197Z,5.38
2023-09-22T11:59:20.752Z,3.53
2023-09-22T12:01:49.898Z,4.10
2023-09-22T12:04:19.853Z,5.45
2023-09-22T12:06:47.262Z,5.03
2023-09-22T12:09:15.031Z,8.60
2023-09-22T12:11:43.141Z,4.85
2023-09-22T12:14:11.596Z,7.60
2023-09-22T12:16:42.192Z,3.25
2023-09-22T12:19:09.215Z,4.25
2023-09-22T12:21:38.463Z,3.17
2023-09-22T12:24:06.051Z,4.00
2023-09-22T12:26:33.056Z,3.47
2023-09-22T12:29:04.210Z,2.78
2023-09-22T12:31:32.069Z,5.07
2023-09-22T12:33:59.098Z,4.95
2023-09-22T12:36:25.712Z,4.95
2023-09-22T12:38:54.253Z,2.57
2023-09-22T12:41:21.283Z,1.90
2023-09-22T12:43:48.735Z,5.00
2023-09-22T12:46:15.906Z,3.90
2023-09-22T12:48:42.730Z,2.92
2023-09-22T12:51:13.072Z,6.47
2023-09-22T12:53:40.426Z,4.13
2023-09-22T12:56:07.570Z,4.75
2023-09-22T12:58:36.305Z,2.15
2023-09-22T13:01:07.620Z,3.25
2023-09-22T13:03:35.859Z,4.90
2023-09-22T13:06:04.759Z,3.35
2023-09-22T13:08:34.585Z,4.03
2023-09-22T13:11:03.225Z,4.50
2023-09-22T13:13:32.173Z,7.78
2023-09-22T13:15:59.899Z,3.57
2023-09-22T13:18:27.040Z,2.55
2023-09-22T13:20:53.834Z,2.42
2023-09-22T13:23:20.826Z,3.60
2023-09-22T13:25:48.129Z,5.43
2023-09-22T13:28:15.666Z,4.40
2023-09-22T13:30:54.239Z,2.50
2023-09-22T13:33:21.956Z,3.47
2023-09-22T13:35:52.106Z,3.65
2023-09-22T13:38:20.182Z,4.13
2023-09-22T13:40:48.494Z,4.43
2023-09-22T13:43:16.734Z,2.58
2023-09-22T13:45:43.991Z,2.88
2023-09-22T13:48:11.041Z,3.15
2023-09-22T13:50:41.800Z,2.92
2023-09-22T13:53:12.481Z,6.57
2023-09-22T13:55:40.499Z,4.10
2023-09-22T13:58:08.480Z,3.53
2023-09-22T14:00:35.339Z,3.13
2023-09-22T14:03:02.790Z,2.75
2023-09-22T14:05:30.209Z,3.60
2023-09-22T14:07:58.193Z,3.03
2023-09-22T14:10:25.983Z,2.78
2023-09-22T14:12:52.955Z,2.17
2023-09-22T14:15:20.939Z,3.25
2023-09-22T14:17:50.670Z,2.67
2023-09-22T14:20:29.145Z,3.90
2023-09-22T14:22:55.937Z,5.70
2023-09-22T14:25:24.308Z,6.65
2023-09-22T14:27:52.913Z,4.28
2023-09-22T14:30:19.772Z,4.10
2023-09-22T14:32:47.754Z,3.10
2023-09-22T14:35:14.533Z,4.63
2023-09-22T14:37:41.555Z,3.70
2023-09-22T14:40:08.631Z,2.88
2023-09-22T14:42:35.989Z,8.40
2023-09-22T14:45:03.390Z,4.13
2023-09-22T14:47:30.179Z,3.55
2023-09-22T14:49:57.213Z,3.60
2023-09-22T14:52:24.119Z,3.45
2023-09-22T14:54:51.256Z,2.87
2023-09-22T14:57:17.889Z,5.13
2023-09-22T14:59:44.672Z,3.45
2023-09-22T15:02:11.412Z,3.38
2023-09-22T15:04:38.228Z,3.03
2023-09-22T15:07:06.074Z,4.63
2023-09-22T15:09:33.012Z,5.85
2023-09-22T15:12:00.800Z,4.85
2023-09-22T15:14:29.346Z,5.35
2023-09-22T15:16:57.333Z,4.05
2023-09-22T15:19:24.568Z,4.90
2023-09-22T15:21:51.397Z,3.55
2023-09-22T15:24:18.104Z,4.05
2023-09-22T15:26:45.214Z,3.40
2023-09-22T15:29:12.335Z,2.35
2023-09-22T15:31:39.802Z,5.67
2023-09-22T15:34:07.225Z,11.27
2023-09-22T15:36:34.204Z,4.18
2023-09-22T15:39:00.995Z,4.30
2023-09-22T15:41:36.435Z,3.28
2023-09-22T15:44:03.751Z,4.57
2023-09-22T15:46:31.978Z,4.82
2023-09-22T15:49:00.926Z,3.53
2023-09-22T15:51:30.011Z,4.95
2023-09-22T15:53:56.761Z,4.40
2023-09-22T15:56:23.558Z,3.93
2023-09-22T15:58:50.589Z,5.28
2023-09-22T16:01:17.416Z,5.20
2023-09-22T16:03:44.821Z,3.85
2023-09-22T16:06:12.340Z,3.92
2023-09-22T16:08:39.278Z,4.53
2023-09-22T16:11:08.869Z,4.15
2023-09-22T16:13:37.940Z,2.92
2023-09-22T16:16:05.217Z,5.68
2023-09-22T16:18:32.935Z,4.38
2023-09-22T16:21:03.141Z,3.40
2023-09-22T16:23:30.759Z,3.33
2023-09-22T16:26:10.369Z,3.60
2023-09-22T16:28:38.460Z,4.00
2023-09-22T16:31:06.973Z,4.60
2023-09-22T16:33:36.132Z,4.27
2023-09-22T16:36:04.392Z,6.35
2023-09-22T16:38:33.169Z,4.40
2023-09-22T16:41:00.242Z,3.42
2023-09-22T16:43:27.379Z,3.58
2023-09-22T16:45:55.814Z,3.17
2023-09-22T16:48:27.880Z,3.78
2023-09-22T16:50:54.784Z,3.28
2023-09-22T16:53:22.873Z,4.55
2023-09-22T16:55:50.542Z,3.38
2023-09-22T16:58:17.445Z,3.27
2023-09-22T17:00:44.313Z,3.97
2023-09-22T17:03:11.096Z,3.00
2023-09-22T17:05:38.228Z,3.92
2023-09-22T17:08:05.809Z,3.00
2023-09-22T17:10:35.279Z,3.90
2023-09-22T17:13:02.158Z,5.80
2023-09-22T17:15:28.935Z,4.40
2023-09-22T17:17:55.687Z,3.88
2023-09-22T17:20:22.605Z,3.40
2023-09-22T17:22:49.274Z,4.00
2023-09-22T17:25:16.115Z,2.95
2023-09-22T17:27:42.899Z,4.00
2023-09-22T17:30:10.086Z,3.13
2023-09-22T17:32:37.081Z,3.28
2023-09-22T17:35:04.403Z,2.40
2023-09-22T17:37:31.760Z,2.75
2023-09-22T17:39:58.846Z,3.10
2023-09-22T17:42:25.804Z,3.72
2023-09-22T17:44:52.616Z,3.55
2023-09-22T17:47:19.413Z,3.33
2023-09-22T17:49:46.558Z,4.60
2023-09-22T17:52:13.518Z,4.00
2023-09-22T17:54:40.427Z,3.33
2023-09-22T17:57:08.156Z,5.55
2023-09-22T17:59:34.924Z,2.93
2023-09-22T18:02:02.170Z,3.05
2023-09-22T18:04:32.234Z,4.28
2023-09-22T18:06:59.088Z,2.58
2023-09-22T18:09:27.720Z,5.45
2023-09-22T18:11:54.860Z,5.97
2023-09-22T18:14:22.321Z,6.43
2023-09-22T18:16:49.559Z,4.30
2023-09-22T18:19:16.415Z,6.68
2023-09-22T18:21:43.316Z,5.53
2023-09-22T18:24:10.142Z,4.70
2023-09-22T18:26:37.086Z,7.97
2023-09-22T18:29:05.563Z,6.95
2023-09-22T18:31:33.130Z,4.95
2023-09-22T18:34:01.531Z,5.25
2023-09-22T18:36:28.623Z,4.73
2023-09-22T18:38:55.396Z,4.82
2023-09-22T18:41:22.393Z,4.13
2023-09-22T18:43:49.689Z,4.72
2023-09-22T18:46:16.647Z,5.10
2023-09-22T18:48:44.285Z,5.23
2023-09-22T18:51:11.790Z,4.15
2023-09-22T18:53:39.811Z,4.82
2023-09-22T18:56:07.047Z,3.53
2023-09-22T18:58:34.075Z,6.50
2023-09-22T19:01:01.991Z,4.90
2023-09-22T19:03:29.725Z,6.50
2023-09-22T19:06:02.282Z,8.05
2023-09-22T19:08:29.005Z,7.82
2023-09-22T19:10:55.824Z,10.40
2023-09-22T19:13:23.133Z,6.73
2023-09-22T19:15:51.017Z,8.85
2023-09-22T19:18:17.966Z,8.05
2023-09-22T19:20:44.910Z,6.95
2023-09-22T19:23:11.713Z,7.30
2023-09-22T19:25:41.996Z,8.17
2023-09-22T19:28:10.999Z,7.80
2023-09-22T19:30:39.846Z,6.60
2023-09-22T19:33:09.641Z,6.85
2023-09-22T19:35:41.151Z,6.07
2023-09-22T19:38:08.717Z,9.07
2023-09-22T19:40:39.147Z,8.57
2023-09-22T19:43:05.918Z,8.95
2023-09-22T19:45:32.623Z,10.80
2023-09-22T19:47:59.352Z,10.73
2023-09-22T19:50:26.567Z,9.47
2023-09-22T19:52:53.168Z,6.85
2023-09-22T19:55:20.046Z,8.80
2023-09-22T19:57:46.703Z,10.90
2023-09-22T20:00:15.514Z,9.60
2023-09-22T20:02:42.913Z,10.03
2023-09-22T20:05:11.183Z,10.95
2023-09-22T20:07:39.693Z,12.13
2023-09-22T20:10:08.524Z,11.50
2023-09-22T20:12:36.060Z,11.30
2023-09-22T20:15:03.793Z,9.13
2023-09-22T20:17:31.641Z,9.43
2023-09-22T20:19:59.170Z,9.07
2023-09-22T20:22:28.754Z,10.80
2023-09-22T20:24:55.598Z,9.00
2023-09-22T20:27:25.559Z,10.13
2023-09-22T20:29:55.849Z,9.20
2023-09-22T20:32:26.654Z,7.57
2023-09-22T20:34:54.800Z,10.75
2023-09-22T20:37:22.492Z,9.00
2023-09-22T20:39:51.029Z,7.60
2023-09-22T20:42:18.540Z,9.25
2023-09-22T20:44:50.659Z,9.05
2023-09-22T20:47:19.936Z,7.30
2023-09-22T20:49:49.474Z,7.53
2023-09-22T20:52:16.559Z,7.23
2023-09-22T20:54:43.533Z,6.78
2023-09-22T20:57:12.529Z,6.25
2023-09-22T20:59:41.890Z,7.00
2023-09-22T21:02:11.193Z,7.40
2023-09-22T21:04:38.302Z,10.77
2023-09-22T21:07:06.477Z,7.20
2023-09-22T21:09:33.398Z,8.38
2023-09-22T21:12:00.175Z,7.47
2023-09-22T21:14:27.018Z,6.43
2023-09-22T21:16:53.734Z,7.67
2023-09-22T21:19:20.696Z,6.95
2023-09-22T21:21:47.654Z,8.07
2023-09-22T21:24:15.368Z,8.40
2023-09-22T21:26:42.184Z,8.65
2023-09-22T21:29:09.147Z,7.03
2023-09-22T21:31:39.885Z,5.90
2023-09-22T21:34:08.141Z,7.20
2023-09-22T21:36:35.197Z,6.93
2023-09-22T21:39:05.195Z,5.97
2023-09-22T21:41:32.154Z,7.13
2023-09-22T21:43:58.861Z,7.30
2023-09-22T21:46:26.475Z,7.78
2023-09-22T21:48:53.129Z,8.18
2023-09-22T21:51:24.043Z,7.15
2023-09-22T21:53:51.901Z,8.10
2023-09-22T21:56:18.873Z,6.68
2023-09-22T21:58:45.728Z,6.82
2023-09-22T22:01:14.293Z,8.75
2023-09-22T22:03:44.184Z,8.00
2023-09-22T22:06:11.925Z,8.10
2023-09-22T22:08:41.082Z,7.10
2023-09-22T22:11:09.696Z,7.07
2023-09-22T22:13:39.962Z,7.50
2023-09-22T22:16:10.755Z,7.90
2023-09-22T22:18:38.560Z,6.90
2023-09-22T22:21:10.580Z,7.22
2023-09-22T22:23:41.827Z,8.18
2023-09-22T22:26:09.003Z,6.20
2023-09-22T22:28:36.176Z,6.72
2023-09-22T22:31:03.621Z,5.80
2023-09-22T22:33:30.337Z,6.15
2023-09-22T22:35:57.432Z,6.22
2023-09-22T22:38:24.424Z,7.88
2023-09-22T22:40:51.323Z,5.43
2023-09-22T22:43:18.152Z,5.87
2023-09-22T22:45:45.392Z,7.50
2023-09-22T22:48:13.514Z,7.32
2023-09-22T22:50:40.517Z,7.07
2023-09-22T22:53:07.847Z,6.15
2023-09-22T22:55:35.346Z,7.07
2023-09-22T22:58:09.972Z,6.63
2023-09-22T23:18:09.112Z,6.32
2023-09-22T23:20:41.280Z,5.80
2023-09-22T23:23:08.228Z,5.70
2023-09-22T23:25:35.776Z,6.20
2023-09-22T23:28:04.276Z,5.40
2023-09-22T23:30:31.935Z,4.60
2023-09-22T23:33:01.688Z,6.43
2023-09-22T23:35:28.416Z,6.57
2023-09-22T23:37:55.295Z,6.40
2023-09-22T23:40:23.267Z,6.15
2023-09-22T23:42:50.109Z,5.63
2023-09-22T23:45:17.273Z,5.75
2023-09-22T23:47:45.656Z,6.30
2023-09-22T23:50:13.201Z,7.65
2023-09-22T23:52:42.335Z,5.47
2023-09-22T23:55:11.542Z,7.03
2023-09-22T23:57:39.303Z,6.57
